Time;durP1;ratioP1;P1;durP2;ratioP2;P2;SDS_P1;SDS_P2;PMS_P1;PMS_P2;Temp;Humidity;BMP_temperature;BMP_pressure;BME280_temperature;BME280_humidity;BME280_pressure;Samples;Min_cycle;Max_cycle;Signal;HPM_P1;HPM_P2
2024/01/11 00:01:49;;;;;;;46.50;26.27;;;-2.30;68.40;;;;;;5019319;28;20230;-78
2024/01/11 00:04:17;;;;;;;49.17;25.92;;;-2.30;68.40;;;;;;5006464;28;20213;-79
2024/01/11 00:06:46;;;;;;;49.47;23.98;;;-2.30;68.40;;;;;;5007544;28;20690;-78
2024/01/11 00:09:14;;;;;;;43.88;24.63;;;-2.30;68.30;;;;;;5005901;28;20213;-78
2024/01/11 00:11:42;;;;;;;42.83;25.08;;;-2.40;68.20;;;;;;5009142;28;20276;-78
2024/01/11 00:14:10;;;;;;;47.10;25.05;;;-2.40;68.30;;;;;;5025433;28;20229;-78
2024/01/11 00:16:38;;;;;;;47.58;24.15;;;-2.40;68.30;;;;;;5004502;28;20600;-78
2024/01/11 00:19:06;;;;;;;44.45;23.35;;;-2.40;68.30;;;;;;5008016;28;20627;-78
2024/01/11 00:21:34;;;;;;;46.80;24.60;;;-2.40;68.40;;;;;;5009255;28;20224;-78
2024/01/11 00:24:07;;;;;;;61.05;29.50;;;-2.40;68.40;;;;;;5006208;28;20209;-78
2024/01/11 00:26:36;;;;;;;55.92;29.67;;;-2.40;68.40;;;;;;5024315;28;20296;-78
2024/01/11 00:29:04;;;;;;;51.92;29.20;;;-2.40;68.40;;;;;;5012918;28;20221;-78
2024/01/11 00:31:32;;;;;;;49.47;27.10;;;-2.40;68.40;;;;;;5008451;28;20350;-78
2024/01/11 00:34:00;;;;;;;50.17;27.50;;;-2.50;68.30;;;;;;5014706;28;20317;-78
2024/01/11 00:36:32;;;;;;;52.72;27.20;;;-2.50;68.40;;;;;;5012362;28;20198;-78
2024/01/11 00:39:00;;;;;;;58.10;30.20;;;-2.60;68.30;;;;;;5013687;28;20306;-79
2024/01/11 00:41:30;;;;;;;63.63;34.28;;;-2.70;68.20;;;;;;5022754;28;20210;-78
2024/01/11 00:43:58;;;;;;;66.18;33.00;;;-2.70;68.30;;;;;;5006374;28;20217;-78
2024/01/11 00:46:26;;;;;;;63.88;33.03;;;-2.70;68.40;;;;;;5003320;28;20898;-78
2024/01/11 00:48:55;;;;;;;70.32;34.75;;;-2.70;68.50;;;;;;5005279;28;20615;-78
2024/01/11 00:51:24;;;;;;;69.07;33.28;;;-2.70;68.70;;;;;;5008501;28;20690;-78
2024/01/11 00:53:52;;;;;;;67.85;32.05;;;-2.70;68.60;;;;;;5005711;28;20241;-78
2024/01/11 00:56:20;;;;;;;63.15;31.60;;;-2.70;68.70;;;;;;5021548;28;20629;-78
2024/01/11 00:58:49;;;;;;;52.85;28.55;;;-2.60;68.80;;;;;;5008943;28;20292;-78
2024/01/11 01:01:17;;;;;;;44.17;25.42;;;-2.60;68.80;;;;;;5006262;28;20299;-78
2024/01/11 01:03:45;;;;;;;54.65;26.77;;;-2.60;68.70;;;;;;5019263;28;20269;-78
2024/01/11 01:06:13;;;;;;;49.28;26.75;;;-2.60;68.70;;;;;;5004772;28;20217;-78
2024/01/11 01:08:41;;;;;;;57.67;31.92;;;-2.60;68.70;;;;;;5005152;28;20280;-78
2024/01/11 01:11:12;;;;;;;69.25;36.55;;;-2.60;68.60;;;;;;5006160;28;20418;-78
2024/01/11 01:13:41;;;;;;;54.03;31.17;;;-2.70;68.50;;;;;;5003968;28;20214;-78
2024/01/11 01:16:10;;;;;;;56.42;29.48;;;-2.70;68.60;;;;;;5007076;28;20217;-78
2024/01/11 01:18:38;;;;;;;55.42;29.17;;;-2.70;68.70;;;;;;5006556;28;20263;-78
2024/01/11 01:21:07;;;;;;;50.53;27.25;;;-2.70;68.70;;;;;;5008195;28;20217;-78
2024/01/11 01:23:35;;;;;;;49.10;26.65;;;-2.70;68.80;;;;;;5007675;28;20242;-78
2024/01/11 01:26:04;;;;;;;49.15;26.98;;;-2.60;68.80;;;;;;5009973;28;20206;-78
2024/01/11 01:28:36;;;;;;;47.80;24.77;;;-2.60;68.70;;;;;;5016039;28;20631;-78
2024/01/11 01:31:04;;;;;;;54.55;27.80;;;-2.70;68.70;;;;;;5006034;28;20241;-78
2024/01/11 01:33:34;;;;;;;60.03;28.13;;;-2.70;68.70;;;;;;5027320;28;21054;-78
2024/01/11 01:36:02;;;;;;;54.65;26.83;;;-2.70;68.60;;;;;;5003408;28;20217;-78
2024/01/11 01:38:31;;;;;;;51.72;27.55;;;-2.80;68.60;;;;;;5020419;28;20227;-78
2024/01/11 01:40:59;;;;;;;53.45;28.70;;;-2.80;68.50;;;;;;5026296;28;20652;-78
2024/01/11 01:43:27;;;;;;;49.78;28.10;;;-2.80;68.50;;;;;;5016783;28;20605;-78
2024/01/11 01:45:55;;;;;;;49.75;25.88;;;-2.90;68.60;;;;;;5009280;28;20237;-78
2024/01/11 01:48:23;;;;;;;49.80;25.70;;;-2.80;68.80;;;;;;5026640;28;20203;-78
2024/01/11 01:50:53;;;;;;;48.97;26.02;;;-2.80;68.90;;;;;;5023510;28;20272;-78
2024/01/11 01:53:23;;;;;;;51.53;26.95;;;-2.80;68.90;;;;;;5009628;28;20659;-78
2024/01/11 01:55:53;;;;;;;45.60;24.48;;;-2.80;68.70;;;;;;5009220;28;20214;-79
2024/01/11 01:58:22;;;;;;;46.63;25.05;;;-2.80;68.60;;;;;;5015508;28;20209;-79
2024/01/11 02:00:52;;;;;;;52.80;25.33;;;-2.90;68.60;;;;;;5014547;28;20335;-79
2024/01/11 02:03:20;;;;;;;52.72;25.95;;;-2.90;68.70;;;;;;5012595;28;20241;-78
2024/01/11 02:05:51;;;;;;;48.90;25.38;;;-2.90;68.80;;;;;;5014886;28;20205;-77
2024/01/11 02:08:23;;;;;;;50.22;24.20;;;-2.90;68.80;;;;;;5007406;28;20202;-79
2024/01/11 02:10:52;;;;;;;45.28;24.13;;;-2.90;68.90;;;;;;5026845;28;20232;-78
2024/01/11 02:13:21;;;;;;;45.40;23.48;;;-2.90;68.80;;;;;;5012320;28;20201;-79
2024/01/11 02:15:48;;;;;;;45.72;24.45;;;-2.90;68.70;;;;;;5010877;28;20198;-78
2024/01/11 02:18:16;;;;;;;44.67;25.70;;;-2.90;68.90;;;;;;5026364;28;20211;-78
2024/01/11 02:20:45;;;;;;;43.40;23.70;;;-2.90;68.90;;;;;;5010166;28;20641;-78
2024/01/11 02:23:18;;;;;;;46.45;25.40;;;-2.90;68.80;;;;;;5007012;28;20221;-78
2024/01/11 02:25:47;;;;;;;46.85;26.70;;;-2.90;68.70;;;;;;5006982;28;20553;-78
2024/01/11 02:28:15;;;;;;;49.03;26.52;;;-3.00;68.70;;;;;;5004864;28;20308;-78
2024/01/11 02:30:43;;;;;;;44.95;24.85;;;-3.00;68.70;;;;;;5007664;28;20713;-78
2024/01/11 02:33:15;;;;;;;43.72;24.23;;;-3.00;68.70;;;;;;5003907;28;20250;-78
2024/01/11 02:35:44;;;;;;;44.38;24.85;;;-3.00;68.70;;;;;;5009212;28;20685;-78
2024/01/11 02:38:16;;;;;;;42.53;23.35;;;-3.00;68.80;;;;;;5017061;28;20298;-78
2024/01/11 02:40:46;;;;;;;60.53;28.83;;;-3.00;68.80;;;;;;5010198;28;20271;-78
2024/01/11 02:43:16;;;;;;;51.30;25.60;;;-3.00;68.80;;;;;;5006071;28;20217;-78
2024/01/11 02:45:43;;;;;;;47.80;24.40;;;-3.10;68.80;;;;;;5005724;28;20797;-78
2024/01/11 02:48:12;;;;;;;42.00;22.42;;;-3.10;69.00;;;;;;5007923;28;20209;-78
2024/01/11 02:50:40;;;;;;;42.95;23.20;;;-3.10;69.00;;;;;;5007772;28;20201;-78
2024/01/11 02:53:08;;;;;;;44.25;23.95;;;-3.00;69.10;;;;;;5009678;28;21063;-78
2024/01/11 02:55:36;;;;;;;44.95;23.83;;;-3.00;69.20;;;;;;5007802;28;20216;-78
2024/01/11 02:58:05;;;;;;;41.40;21.80;;;-3.00;69.20;;;;;;5026356;28;20204;-78
2024/01/11 03:00:33;;;;;;;43.47;23.67;;;-3.00;69.10;;;;;;5026546;28;20285;-78
2024/01/11 03:03:01;;;;;;;48.85;22.48;;;-3.00;69.00;;;;;;5005044;28;20984;-78
2024/01/11 03:05:29;;;;;;;40.22;22.85;;;-3.00;69.00;;;;;;5007805;28;20232;-78
2024/01/11 03:07:57;;;;;;;41.53;23.50;;;-3.00;69.00;;;;;;5010433;28;20241;-78
2024/01/11 03:10:26;;;;;;;44.15;22.25;;;-3.00;69.00;;;;;;5007578;28;20682;-78
2024/01/11 03:12:54;;;;;;;45.47;21.80;;;-3.10;68.80;;;;;;5005841;28;20256;-78
2024/01/11 03:15:23;;;;;;;42.92;24.75;;;-3.10;69.00;;;;;;5022871;28;20195;-78
2024/01/11 03:17:51;;;;;;;42.17;23.20;;;-3.10;69.10;;;;;;5003303;28;20268;-78
2024/01/11 03:20:24;;;;;;;43.28;23.05;;;-3.10;69.10;;;;;;5009943;28;20583;-78
2024/01/11 03:22:52;;;;;;;41.35;22.50;;;-3.10;69.00;;;;;;5006397;28;20215;-78
2024/01/11 03:25:20;;;;;;;39.85;22.13;;;-3.10;69.00;;;;;;5021343;28;20223;-78
2024/01/11 03:27:48;;;;;;;46.28;22.92;;;-3.10;69.10;;;;;;5008280;28;20216;-78
2024/01/11 03:30:16;;;;;;;38.90;21.95;;;-3.10;69.30;;;;;;5012559;28;20202;-78
2024/01/11 03:32:46;;;;;;;38.40;22.77;;;-3.10;69.30;;;;;;5005911;28;20705;-78
2024/01/11 03:35:14;;;;;;;41.05;21.48;;;-3.10;69.20;;;;;;5023466;28;20894;-78
2024/01/11 03:37:42;;;;;;;42.63;21.35;;;-3.10;69.20;;;;;;5007168;28;20935;-78
2024/01/11 03:40:11;;;;;;;38.05;21.67;;;-3.10;69.20;;;;;;5007500;28;20533;-78
2024/01/11 03:42:39;;;;;;;42.70;22.58;;;-3.10;69.20;;;;;;5004394;28;20566;-78
2024/01/11 03:45:07;;;;;;;43.78;22.10;;;-3.10;69.20;;;;;;5027117;28;20210;-78
2024/01/11 03:47:35;;;;;;;37.28;20.88;;;-3.10;69.20;;;;;;5011100;28;20202;-78
2024/01/11 03:50:06;;;;;;;40.53;21.45;;;-3.10;69.20;;;;;;5005489;28;20208;-79
2024/01/11 03:52:34;;;;;;;35.88;21.25;;;-3.10;69.20;;;;;;5012922;28;20210;-76
2024/01/11 03:55:02;;;;;;;41.22;21.65;;;-3.10;69.10;;;;;;5013967;28;20216;-77
2024/01/11 03:57:30;;;;;;;45.70;21.63;;;-3.10;69.10;;;;;;5006972;28;20237;-78
2024/01/11 03:59:58;;;;;;;38.45;21.73;;;-3.10;69.10;;;;;;5004655;28;20201;-78
2024/01/11 04:02:26;;;;;;;39.15;21.73;;;-3.10;69.10;;;;;;5025278;28;20230;-78
2024/01/11 04:04:54;;;;;;;40.17;22.15;;;-3.10;69.10;;;;;;5018543;28;20219;-78
2024/01/11 04:07:27;;;;;;;45.50;22.92;;;-3.10;69.10;;;;;;5006469;28;20293;-78
2024/01/11 04:09:55;;;;;;;34.35;21.77;;;-3.20;69.00;;;;;;5006541;28;20216;-78
2024/01/11 04:12:23;;;;;;;36.50;22.33;;;-3.20;69.00;;;;;;5025454;28;20314;-78
2024/01/11 04:14:52;;;;;;;46.17;24.00;;;-3.20;69.00;;;;;;5009177;28;20192;-78
2024/01/11 04:17:20;;;;;;;42.72;22.50;;;-3.20;69.00;;;;;;5005266;28;20202;-78
2024/01/11 04:19:49;;;;;;;42.03;22.83;;;-3.20;68.90;;;;;;5010225;28;20209;-79
2024/01/11 04:22:16;;;;;;;48.22;21.17;;;-3.30;68.90;;;;;;5009025;28;20658;-78
2024/01/11 04:24:46;;;;;;;41.30;22.48;;;-3.30;68.70;;;;;;5022879;28;20646;-78
2024/01/11 04:27:14;;;;;;;42.47;21.88;;;-3.40;68.80;;;;;;5004114;28;20227;-78
2024/01/11 04:29:42;;;;;;;39.67;23.08;;;-3.40;68.90;;;;;;5006962;28;20203;-78
2024/01/11 04:32:10;;;;;;;43.28;24.05;;;-3.40;68.90;;;;;;5006360;28;20230;-78
2024/01/11 04:34:38;;;;;;;39.60;21.95;;;-3.50;68.80;;;;;;5004880;28;20233;-78
2024/01/11 04:37:07;;;;;;;36.67;21.20;;;-3.50;68.70;;;;;;5012034;28;20218;-78
2024/01/11 04:39:36;;;;;;;43.65;24.15;;;-3.60;68.70;;;;;;5005761;28;20219;-77
2024/01/11 04:42:05;;;;;;;41.92;24.40;;;-3.60;68.80;;;;;;5010132;28;20216;-78
2024/01/11 04:44:35;;;;;;;42.67;22.15;;;-3.60;69.10;;;;;;5005506;28;20897;-78
2024/01/11 04:47:03;;;;;;;40.67;22.35;;;-3.60;69.20;;;;;;5004987;28;20751;-78
2024/01/11 04:49:32;;;;;;;41.72;21.88;;;-3.60;69.20;;;;;;5004188;28;20211;-78
2024/01/11 04:52:02;;;;;;;44.17;20.35;;;-3.50;69.20;;;;;;5006888;28;20716;-78
2024/01/11 04:54:30;;;;;;;42.38;21.75;;;-3.50;69.10;;;;;;5024598;28;20235;-78
2024/01/11 04:56:58;;;;;;;43.15;20.95;;;-3.50;69.20;;;;;;5006329;28;20196;-78
2024/01/11 04:59:27;;;;;;;39.90;23.00;;;-3.50;69.20;;;;;;5006666;28;20249;-78
2024/01/11 05:01:56;;;;;;;43.75;21.17;;;-3.40;69.10;;;;;;5019439;28;20230;-78
2024/01/11 05:04:24;;;;;;;41.30;23.40;;;-3.50;69.10;;;;;;5007630;28;20276;-78
2024/01/11 05:06:52;;;;;;;37.72;21.88;;;-3.50;69.00;;;;;;5005484;28;20238;-78
2024/01/11 05:09:20;;;;;;;44.03;23.27;;;-3.50;68.80;;;;;;5007439;28;20205;-78
2024/01/11 05:11:48;;;;;;;52.15;22.45;;;-3.60;68.70;;;;;;5009499;28;20208;-78
2024/01/11 05:14:16;;;;;;;44.40;23.30;;;-3.70;68.60;;;;;;5021298;28;20212;-78
2024/01/11 05:16:46;;;;;;;50.60;24.95;;;-3.80;68.80;;;;;;5008564;28;20216;-78
2024/01/11 05:19:14;;;;;;;49.20;27.73;;;-3.80;69.00;;;;;;5003016;28;20674;-78
2024/01/11 05:21:42;;;;;;;37.97;22.42;;;-3.70;69.10;;;;;;5011043;28;20248;-78
2024/01/11 05:24:11;;;;;;;40.90;22.35;;;-3.80;69.10;;;;;;5008029;28;20202;-78
2024/01/11 05:26:40;;;;;;;41.83;22.50;;;-3.70;68.90;;;;;;5005713;28;20281;-78
2024/01/11 05:29:09;;;;;;;39.22;21.40;;;-3.70;69.10;;;;;;5007180;28;20221;-78
2024/01/11 05:31:37;;;;;;;43.10;23.67;;;-3.70;69.20;;;;;;5012441;28;20235;-78
2024/01/11 05:34:06;;;;;;;45.55;25.52;;;-3.70;69.20;;;;;;5007875;28;20204;-78
2024/01/11 05:36:35;;;;;;;43.78;23.35;;;-3.70;69.20;;;;;;5005397;28;20211;-78
2024/01/11 05:39:03;;;;;;;41.10;22.73;;;-3.70;69.20;;;;;;5006500;28;20208;-78
2024/01/11 05:41:31;;;;;;;42.30;23.70;;;-3.70;69.30;;;;;;5005849;28;20230;-78
2024/01/11 05:43:59;;;;;;;43.00;22.75;;;-3.70;69.20;;;;;;5022842;28;20680;-78
2024/01/11 05:46:27;;;;;;;40.80;22.05;;;-3.60;69.20;;;;;;5024416;28;20244;-78
2024/01/11 05:48:58;;;;;;;45.25;22.63;;;-3.60;69.20;;;;;;5007010;28;20589;-78
2024/01/11 05:51:27;;;;;;;41.33;22.23;;;-3.60;69.20;;;;;;5006404;28;20204;-78
2024/01/11 05:53:56;;;;;;;39.42;21.20;;;-3.60;69.20;;;;;;5007731;28;20549;-78
2024/01/11 05:56:24;;;;;;;40.45;22.00;;;-3.70;68.90;;;;;;5018565;28;20835;-78
2024/01/11 05:58:52;;;;;;;44.75;22.58;;;-3.70;68.90;;;;;;5007966;28;20286;-78
2024/01/11 06:01:21;;;;;;;44.13;22.77;;;-3.70;68.90;;;;;;5003410;28;20308;-78
2024/01/11 06:03:49;;;;;;;39.28;22.67;;;-3.80;68.70;;;;;;5004491;28;20226;-78
2024/01/11 06:06:17;;;;;;;41.97;23.70;;;-3.80;68.70;;;;;;5005528;28;20242;-78
2024/01/11 06:08:48;;;;;;;45.97;23.50;;;-3.90;68.90;;;;;;5019434;28;20216;-78
2024/01/11 06:11:18;;;;;;;49.28;25.05;;;-3.90;69.10;;;;;;5006267;28;20807;-78
2024/01/11 06:13:47;;;;;;;46.45;26.70;;;-3.90;69.00;;;;;;5026967;28;20595;-78
2024/01/11 06:16:16;;;;;;;61.92;33.40;;;-3.90;68.90;;;;;;5013017;28;20223;-78
2024/01/11 06:18:44;;;;;;;79.00;37.83;;;-3.90;68.90;;;;;;5020152;28;20302;-77
2024/01/11 06:21:13;;;;;;;88.15;38.80;;;-4.00;69.10;;;;;;5002702;28;20296;-77
2024/01/11 06:23:41;;;;;;;56.10;30.92;;;-3.90;69.10;;;;;;5003913;28;20244;-77
2024/01/11 06:26:11;;;;;;;63.53;30.77;;;-4.00;69.00;;;;;;5004832;28;20559;-77
2024/01/11 06:28:39;;;;;;;55.08;28.92;;;-4.00;69.00;;;;;;5017531;28;20306;-77
2024/01/11 06:31:07;;;;;;;63.28;34.35;;;-4.00;69.20;;;;;;5007087;28;20327;-77
2024/01/11 06:33:36;;;;;;;63.10;32.30;;;-4.00;69.10;;;;;;5003014;28;20227;-77
2024/01/11 06:36:07;;;;;;;68.32;33.85;;;-3.90;69.20;;;;;;5003415;28;20314;-78
2024/01/11 06:38:35;;;;;;;61.45;34.33;;;-3.90;69.20;;;;;;5025169;28;20849;-77
2024/01/11 06:41:03;;;;;;;71.57;34.75;;;-3.90;69.10;;;;;;5004010;28;20209;-77
2024/01/11 06:43:32;;;;;;;59.03;33.42;;;-3.90;69.20;;;;;;5002407;28;20199;-77
2024/01/11 06:46:04;;;;;;;59.97;31.48;;;-3.90;69.30;;;;;;5020694;28;20222;-77
2024/01/11 06:48:33;;;;;;;60.40;31.63;;;-3.90;69.30;;;;;;5006620;28;20224;-77
2024/01/11 06:51:01;;;;;;;56.67;32.15;;;-3.90;69.20;;;;;;5021313;28;20207;-77
2024/01/11 06:53:30;;;;;;;58.72;34.22;;;-3.90;69.20;;;;;;5000610;28;20275;-77
2024/01/11 06:55:58;;;;;;;69.32;35.35;;;-3.90;69.20;;;;;;5003276;28;20207;-77
2024/01/11 06:58:26;;;;;;;59.00;29.35;;;-3.90;69.30;;;;;;5020951;28;20293;-77
2024/01/11 07:00:56;;;;;;;58.53;30.25;;;-3.80;69.30;;;;;;5005953;28;20543;-77
2024/01/11 07:03:25;;;;;;;53.55;28.35;;;-3.80;69.30;;;;;;5009359;28;20206;-77
2024/01/11 07:05:53;;;;;;;57.22;30.13;;;-3.80;69.20;;;;;;5006684;28;20536;-77
2024/01/11 07:08:23;;;;;;;58.03;30.67;;;-3.80;69.20;;;;;;5017897;28;20214;-77
2024/01/11 07:10:51;;;;;;;63.97;31.55;;;-3.80;69.10;;;;;;5023121;28;20277;-77
2024/01/11 07:13:20;;;;;;;63.47;32.75;;;-3.90;69.10;;;;;;5002357;28;20217;-77
2024/01/11 07:15:48;;;;;;;55.58;30.63;;;-3.90;69.10;;;;;;5021377;28;20239;-77
2024/01/11 07:18:17;;;;;;;67.00;31.48;;;-3.90;69.00;;;;;;5002714;28;20308;-77
2024/01/11 07:20:47;;;;;;;63.30;32.35;;;-3.90;69.10;;;;;;5014691;28;20212;-77
2024/01/11 07:23:17;;;;;;;59.90;34.17;;;-3.90;69.10;;;;;;5006414;28;20195;-77
2024/01/11 07:25:45;;;;;;;67.43;35.95;;;-3.90;69.10;;;;;;5010235;28;20220;-77
2024/01/11 07:28:13;;;;;;;58.90;33.72;;;-3.90;69.00;;;;;;5003608;28;20325;-78
2024/01/11 07:30:41;;;;;;;77.50;36.67;;;-3.90;68.90;;;;;;5005486;28;20239;-77
2024/01/11 07:33:09;;;;;;;60.25;34.10;;;-4.00;68.90;;;;;;5004097;28;20691;-77
2024/01/11 07:35:39;;;;;;;66.30;34.10;;;-4.10;68.90;;;;;;5018029;28;20306;-77
2024/01/11 07:38:07;;;;;;;70.05;36.20;;;-4.10;69.00;;;;;;5018371;28;20231;-77
2024/01/11 07:40:36;;;;;;;76.25;41.60;;;-4.10;69.00;;;;;;5006562;28;20287;-77
2024/01/11 07:43:08;;;;;;;79.10;42.90;;;-4.10;69.10;;;;;;5005668;28;20282;-77
2024/01/11 07:45:36;;;;;;;101.20;49.95;;;-4.10;69.00;;;;;;5004593;28;20219;-77
2024/01/11 07:48:05;;;;;;;135.48;55.85;;;-4.10;69.20;;;;;;5007789;28;20224;-77
2024/01/11 07:50:35;;;;;;;123.82;55.97;;;-4.00;69.20;;;;;;5018571;28;20239;-77
2024/01/11 07:53:05;;;;;;;118.55;53.40;;;-4.00;69.20;;;;;;5003334;28;20818;-77
2024/01/11 07:55:34;;;;;;;113.47;52.35;;;-4.00;69.20;;;;;;5000071;28;20217;-77
2024/01/11 07:58:02;;;;;;;106.43;51.58;;;-3.90;69.20;;;;;;5010802;28;20207;-77
2024/01/11 08:00:30;;;;;;;111.00;49.85;;;-3.90;69.30;;;;;;5004593;28;20329;-77
2024/01/11 08:02:58;;;;;;;119.22;51.22;;;-3.90;69.30;;;;;;5006420;28;20271;-77
2024/01/11 08:05:26;;;;;;;101.28;51.10;;;-3.90;69.30;;;;;;5008080;28;20262;-77
2024/01/11 08:07:54;;;;;;;97.30;47.17;;;-3.80;69.30;;;;;;5002223;28;20220;-77
2024/01/11 08:10:24;;;;;;;101.07;46.38;;;-3.80;69.40;;;;;;4999166;28;20205;-77
2024/01/11 08:12:52;;;;;;;82.70;41.97;;;-3.80;69.40;;;;;;5005660;28;20210;-77
2024/01/11 08:15:20;;;;;;;85.55;40.83;;;-3.70;69.40;;;;;;5002954;28;20306;-77
2024/01/11 08:17:49;;;;;;;92.07;42.30;;;-3.70;69.40;;;;;;5001798;28;20204;-77
2024/01/11 08:20:17;;;;;;;80.43;39.97;;;-3.70;69.40;;;;;;5003590;28;20317;-77
2024/01/11 08:22:46;;;;;;;70.90;38.70;;;-3.70;69.30;;;;;;5004399;28;20207;-77
2024/01/11 08:25:14;;;;;;;68.70;38.10;;;-3.70;69.30;;;;;;5003836;28;21006;-77
2024/01/11 08:27:44;;;;;;;63.40;34.63;;;-3.70;69.40;;;;;;5006677;28;20228;-78
2024/01/11 08:30:13;;;;;;;65.75;32.00;;;-3.60;69.50;;;;;;5019686;28;20622;-77
2024/01/11 08:32:41;;;;;;;56.05;30.83;;;-3.60;69.50;;;;;;5022159;28;20208;-77
2024/01/11 08:35:11;;;;;;;54.05;28.80;;;-3.60;69.50;;;;;;5013925;28;20234;-77
2024/01/11 08:37:39;;;;;;;50.72;26.20;;;-3.50;69.50;;;;;;5002126;28;20583;-77
2024/01/11 08:40:09;;;;;;;42.78;26.83;;;-3.50;69.50;;;;;;5005831;28;20211;-77
2024/01/11 08:42:41;;;;;;;48.88;25.52;;;-3.50;69.50;;;;;;5007270;28;20222;-77
2024/01/11 08:45:17;;;;;;;41.55;23.77;;;-3.50;69.50;;;;;;5008392;28;20205;-79
2024/01/11 08:47:46;;;;;;;48.47;25.80;;;-3.40;69.50;;;;;;5001340;28;20225;-77
2024/01/11 08:50:15;;;;;;;39.78;20.50;;;-3.40;69.60;;;;;;5000273;28;20212;-77
2024/01/11 08:52:44;;;;;;;41.30;23.50;;;-3.40;69.60;;;;;;5020567;28;20615;-77
2024/01/11 08:55:12;;;;;;;42.05;23.20;;;-3.40;69.60;;;;;;4999474;28;20232;-77
2024/01/11 08:57:41;;;;;;;39.05;22.77;;;-3.40;69.60;;;;;;4999300;28;20211;-77
2024/01/11 09:00:12;;;;;;;44.92;24.08;;;-3.30;69.70;;;;;;5001484;28;20605;-78
2024/01/11 09:02:40;;;;;;;46.10;24.65;;;-3.30;69.80;;;;;;4998936;28;20229;-77
2024/01/11 09:05:08;;;;;;;46.30;24.02;;;-3.30;69.80;;;;;;5000901;28;20267;-77
2024/01/11 09:07:37;;;;;;;43.53;22.23;;;-3.20;69.90;;;;;;5003376;28;20230;-77
2024/01/11 09:10:06;;;;;;;45.95;23.67;;;-3.20;69.90;;;;;;5016795;28;20697;-77
2024/01/11 09:12:34;;;;;;;38.13;21.50;;;-3.20;69.90;;;;;;5004167;28;20221;-77
2024/01/11 09:15:03;;;;;;;43.38;23.30;;;-3.20;70.00;;;;;;4999518;28;20555;-78
2024/01/11 09:17:32;;;;;;;45.35;23.08;;;-3.10;70.10;;;;;;5001231;28;20780;-77
2024/01/11 09:20:00;;;;;;;43.88;23.23;;;-3.00;70.20;;;;;;5000583;28;20220;-77
2024/01/11 09:22:29;;;;;;;38.42;22.55;;;-3.00;70.30;;;;;;5004130;28;20645;-77
2024/01/11 09:24:57;;;;;;;44.42;25.20;;;-3.00;70.30;;;;;;5003969;28;20259;-77
2024/01/11 09:27:24;;;;;;;44.85;24.15;;;-2.90;70.30;;;;;;5000486;28;20206;-77
2024/01/11 09:29:52;;;;;;;48.60;24.90;;;-2.90;70.30;;;;;;5013157;28;20213;-77
2024/01/11 09:32:24;;;;;;;58.35;25.08;;;-2.80;70.30;;;;;;5001198;28;20247;-77
2024/01/11 09:34:53;;;;;;;40.30;24.33;;;-2.80;70.40;;;;;;5000760;28;20216;-76
2024/01/11 09:37:22;;;;;;;51.00;25.42;;;-2.80;70.40;;;;;;5003319;28;20235;-77
2024/01/11 09:39:50;;;;;;;49.63;24.10;;;-2.70;70.50;;;;;;5006298;28;20209;-77
2024/01/11 09:42:19;;;;;;;44.95;23.92;;;-2.70;70.60;;;;;;5004301;28;20654;-77
2024/01/11 09:44:47;;;;;;;46.55;26.13;;;-2.60;70.60;;;;;;5006619;28;20201;-77
2024/01/11 09:47:17;;;;;;;44.67;23.52;;;-2.60;70.60;;;;;;5006466;28;20216;-77
2024/01/11 09:49:50;;;;;;;42.40;24.02;;;-2.60;70.70;;;;;;5004763;28;20221;-77
2024/01/11 09:52:23;;;;;;;44.35;24.48;;;-2.50;70.70;;;;;;5003742;28;20206;-77
2024/01/11 09:54:51;;;;;;;48.75;25.67;;;-2.50;70.90;;;;;;5004763;28;20200;-77
2024/01/11 09:57:26;;;;;;;50.88;26.70;;;-2.40;70.90;;;;;;5003793;28;20216;-77
2024/01/11 09:59:57;;;;;;;45.75;23.67;;;-2.40;70.90;;;;;;5016586;28;20206;-77
2024/01/11 10:02:26;;;;;;;44.40;24.80;;;-2.30;71.00;;;;;;5002688;28;20229;-77
2024/01/11 10:04:54;;;;;;;48.58;26.40;;;-2.30;70.80;;;;;;5004481;28;20205;-77
2024/01/11 10:07:25;;;;;;;48.20;25.25;;;-2.30;70.80;;;;;;5020618;28;20230;-77
2024/01/11 10:09:54;;;;;;;61.95;25.60;;;-2.30;70.90;;;;;;5008869;28;20671;-77
2024/01/11 10:12:24;;;;;;;50.55;26.23;;;-2.30;71.00;;;;;;5020652;28;20237;-77
2024/01/11 10:14:53;;;;;;;48.70;24.60;;;-2.20;71.10;;;;;;5010217;28;20206;-77
2024/01/11 10:17:22;;;;;;;55.08;25.90;;;-2.20;71.20;;;;;;5003887;28;20793;-77
2024/01/11 10:19:54;;;;;;;52.53;25.02;;;-2.20;71.40;;;;;;5017328;28;20206;-77
2024/01/11 10:22:25;;;;;;;46.85;24.67;;;-2.20;71.60;;;;;;5006022;28;20209;-77
2024/01/11 10:25:10;;;;;;;46.38;25.65;;;-2.20;71.70;;;;;;5002865;28;20194;-76
2024/01/11 10:27:41;;;;;;;46.33;24.95;;;-2.10;71.80;;;;;;5017247;28;20415;-77
2024/01/11 10:30:12;;;;;;;48.28;26.45;;;-2.10;71.70;;;;;;5004141;28;20233;-77
2024/01/11 10:32:41;;;;;;;52.92;26.30;;;-2.00;71.70;;;;;;5021374;28;20729;-76
2024/01/11 10:35:09;;;;;;;58.88;29.35;;;-2.00;71.80;;;;;;5002146;28;20271;-77
2024/01/11 10:37:39;;;;;;;45.00;25.58;;;-1.90;71.80;;;;;;5016717;28;20267;-78
2024/01/11 10:40:12;;;;;;;50.30;24.50;;;-1.80;71.80;;;;;;5001908;28;20198;-78
2024/01/11 10:42:43;;;;;;;42.22;23.73;;;-1.80;71.80;;;;;;5000544;28;20225;-78
2024/01/11 10:45:16;;;;;;;49.92;26.90;;;-1.70;71.80;;;;;;5006630;28;20217;-78
2024/01/11 10:47:51;;;;;;;42.80;24.23;;;-1.70;71.70;;;;;;5006476;28;20644;-78
2024/01/11 10:50:20;;;;;;;51.10;25.05;;;-1.60;71.80;;;;;;5005348;28;20229;-77
2024/01/11 10:53:02;;;;;;;45.05;24.45;;;-1.60;71.80;;;;;;5019183;28;20213;-77
2024/01/11 10:55:32;;;;;;;49.72;26.63;;;-1.50;71.90;;;;;;5024983;28;20237;-77
2024/01/11 10:58:01;;;;;;;45.28;25.20;;;-1.50;71.80;;;;;;5004934;28;20304;-77
2024/01/11 11:00:30;;;;;;;44.75;24.95;;;-1.50;71.90;;;;;;5019191;28;20264;-77
2024/01/11 11:03:00;;;;;;;49.42;25.48;;;-1.50;72.00;;;;;;5002629;28;20214;-78
2024/01/11 11:05:30;;;;;;;45.90;25.60;;;-1.50;72.00;;;;;;5017944;28;20202;-77
2024/01/11 11:08:02;;;;;;;43.50;24.50;;;-1.40;72.00;;;;;;5001485;28;20198;-77
2024/01/11 11:10:32;;;;;;;45.45;26.95;;;-1.40;72.10;;;;;;5004173;28;20234;-77
2024/01/11 11:13:00;;;;;;;48.50;25.13;;;-1.30;72.10;;;;;;5004548;28;20208;-77
2024/01/11 11:15:29;;;;;;;49.47;24.67;;;-1.30;72.10;;;;;;5007179;28;20210;-77
2024/01/11 11:17:58;;;;;;;47.05;24.70;;;-1.30;72.10;;;;;;5001444;28;20325;-77
2024/01/11 11:20:27;;;;;;;50.30;25.17;;;-1.20;72.00;;;;;;5019395;28;20678;-77
2024/01/11 11:23:07;;;;;;;46.45;24.85;;;-1.20;72.00;;;;;;5004493;28;20216;-77
2024/01/11 11:25:35;;;;;;;44.80;23.33;;;-1.10;72.10;;;;;;5004076;28;20237;-77
2024/01/11 11:28:05;;;;;;;38.58;22.90;;;-1.10;72.10;;;;;;5020040;28;20220;-77
2024/01/11 11:30:33;;;;;;;42.95;24.25;;;-1.10;72.10;;;;;;5005182;28;20229;-78
2024/01/11 11:33:10;;;;;;;47.75;25.58;;;-1.00;72.10;;;;;;5007906;28;20619;-77
2024/01/11 11:35:39;;;;;;;51.35;25.80;;;-1.00;72.20;;;;;;5003446;28;20197;-77
2024/01/11 11:38:09;;;;;;;44.08;23.95;;;-0.90;72.10;;;;;;5001711;28;20210;-77
2024/01/11 11:40:39;;;;;;;41.80;25.02;;;-0.90;72.20;;;;;;5005915;28;20234;-77
2024/01/11 11:43:08;;;;;;;42.88;24.38;;;-0.90;72.20;;;;;;5002776;28;20198;-78
2024/01/11 11:45:37;;;;;;;50.17;26.70;;;-0.80;72.30;;;;;;5005317;28;20205;-77
2024/01/11 11:48:52;;;;;;;48.47;24.42;;;-0.80;72.30;;;;;;5003743;28;20241;-78
2024/01/11 11:51:21;;;;;;;40.75;22.38;;;-0.70;72.30;;;;;;5003776;28;20205;-77
2024/01/11 11:53:54;;;;;;;44.97;23.80;;;-0.70;72.30;;;;;;5000677;28;20209;-77
2024/01/11 11:56:24;;;;;;;42.10;23.88;;;-0.70;72.30;;;;;;5001605;28;20266;-77
2024/01/11 11:58:53;;;;;;;46.03;22.75;;;-0.70;72.30;;;;;;5002180;28;20198;-77
2024/01/11 12:01:21;;;;;;;42.45;23.23;;;-0.60;72.40;;;;;;5005348;28;20229;-77
2024/01/11 12:03:52;;;;;;;40.13;22.48;;;-0.60;72.40;;;;;;4999331;28;20206;-77
2024/01/11 12:06:23;;;;;;;44.47;24.10;;;-0.60;72.50;;;;;;5002791;28;20204;-78
2024/01/11 12:08:55;;;;;;;41.67;23.25;;;-0.60;72.50;;;;;;5016054;28;20225;-77
2024/01/11 12:11:26;;;;;;;50.35;26.92;;;-0.50;72.50;;;;;;5004710;28;20209;-77
2024/01/11 12:13:57;;;;;;;43.80;23.70;;;-0.50;72.60;;;;;;5005420;28;20615;-77
2024/01/11 12:16:25;;;;;;;45.30;25.48;;;-0.40;72.60;;;;;;4997715;28;20520;-77
2024/01/11 12:18:53;;;;;;;55.90;27.80;;;-0.40;72.50;;;;;;5020255;28;20259;-78
2024/01/11 12:21:21;;;;;;;47.33;25.30;;;-0.30;72.50;;;;;;5017981;28;20206;-77
2024/01/11 12:23:49;;;;;;;47.92;26.55;;;-0.30;72.50;;;;;;5016166;28;20216;-78
2024/01/11 12:26:21;;;;;;;44.80;24.48;;;-0.20;72.50;;;;;;5017936;28;20210;-76
2024/01/11 12:28:51;;;;;;;40.03;23.50;;;-0.20;72.50;;;;;;5019385;28;20308;-77
2024/01/11 12:31:20;;;;;;;40.05;21.35;;;-0.10;72.50;;;;;;5004484;28;20670;-77
2024/01/11 12:33:48;;;;;;;41.60;24.05;;;-0.10;72.60;;;;;;5002663;28;20213;-77
2024/01/11 12:36:17;;;;;;;45.45;24.52;;;0.00;72.50;;;;;;5002102;28;20204;-77